Time;durP1;ratioP1;P1;durP2;ratioP2;P2;SDS_P1;SDS_P2;PMS_P1;PMS_P2;Temp;Humidity;BMP_temperature;BMP_pressure;BME280_temperature;BME280_humidity;BME280_pressure;Samples;Min_cycle;Max_cycle;Signal;HPM_P1;HPM_P2
2021/03/14 12:10:30;;;;;;;6.40;3.95;;;2.90;99.90;;;;;;5001904;27;20489;-67
2021/03/14 12:12:57;;;;;;;11.38;3.83;;;2.80;99.90;;;;;;5013539;28;20141;-64
2021/03/14 12:15:24;;;;;;;10.70;4.15;;;2.80;99.90;;;;;;5000438;28;20058;-73
2021/03/14 12:17:53;;;;;;;7.35;4.38;;;2.90;99.90;;;;;;4995786;28;20085;-70
2021/03/14 12:20:43;;;;;;;6.97;4.20;;;2.90;99.90;;;;;;5000807;28;20406;-67
2021/03/14 12:23:19;;;;;;;6.53;3.17;;;2.90;99.90;;;;;;5000578;28;20042;-67
2021/03/14 12:25:52;;;;;;;6.45;3.42;;;2.90;99.90;;;;;;4988576;28;20053;-68
2021/03/14 12:28:26;;;;;;;13.20;4.45;;;3.00;99.90;;;;;;4992960;28;20088;-69
2021/03/14 12:30:55;;;;;;;10.30;6.25;;;3.00;99.90;;;;;;4999422;28;20046;-68
2021/03/14 12:33:22;;;;;;;8.48;3.47;;;3.00;99.90;;;;;;4999490;28;20064;-67
2021/03/14 12:35:49;;;;;;;6.57;3.38;;;3.10;99.90;;;;;;4988648;28;20042;-73
2021/03/14 12:38:28;;;;;;;6.57;4.13;;;3.10;99.90;;;;;;4978463;28;20046;-67
2021/03/14 12:40:54;;;;;;;10.60;4.10;;;3.00;99.90;;;;;;4998678;28;20505;-70
2021/03/14 12:43:21;;;;;;;6.15;4.43;;;3.10;99.90;;;;;;4996178;28;20058;-68
2021/03/14 12:45:51;;;;;;;11.20;5.00;;;3.10;99.90;;;;;;4998679;28;20069;-67
2021/03/14 12:48:18;;;;;;;9.30;4.10;;;3.10;99.90;;;;;;4997676;28;20058;-71
2021/03/14 12:50:50;;;;;;;5.28;3.40;;;3.10;99.90;;;;;;5009240;28;20385;-68
2021/03/14 12:53:19;;;;;;;5.18;3.42;;;3.10;99.90;;;;;;5022424;28;20057;-66
2021/03/14 12:55:47;;;;;;;4.60;3.83;;;3.10;99.90;;;;;;4994060;28;20112;-66
2021/03/14 12:58:14;;;;;;;7.80;4.32;;;3.10;99.90;;;;;;5009624;28;20096;-66
2021/03/14 13:00:47;;;;;;;7.15;4.82;;;3.20;99.90;;;;;;4989357;28;20463;-67
2021/03/14 13:03:14;;;;;;;6.93;4.07;;;3.30;99.90;;;;;;4973895;28;20142;-67
2021/03/14 13:05:41;;;;;;;8.07;3.67;;;3.30;99.90;;;;;;4990543;28;20681;-68
2021/03/14 13:08:08;;;;;;;7.43;3.08;;;3.30;99.90;;;;;;4993513;28;21513;-64
2021/03/14 13:10:36;;;;;;;6.05;3.80;;;3.40;99.90;;;;;;4992569;28;20177;-66
2021/03/14 13:13:04;;;;;;;5.60;3.63;;;3.40;99.90;;;;;;4992738;28;20042;-64
2021/03/14 13:15:32;;;;;;;6.10;2.97;;;3.40;99.90;;;;;;4995930;28;20093;-67
2021/03/14 13:17:59;;;;;;;5.40;3.22;;;3.40;99.90;;;;;;4997440;28;20482;-66
2021/03/14 13:20:27;;;;;;;7.80;3.03;;;3.40;99.90;;;;;;4987706;28;20055;-65
2021/03/14 13:23:12;;;;;;;7.45;3.95;;;3.50;99.90;;;;;;4981364;28;20046;-65
2021/03/14 13:25:39;;;;;;;6.47;2.85;;;3.50;99.90;;;;;;4985385;28;20049;-65
2021/03/14 13:28:05;;;;;;;4.50;3.53;;;3.50;99.90;;;;;;4979727;28;20061;-65
2021/03/14 13:30:32;;;;;;;6.80;3.30;;;3.70;99.90;;;;;;4979736;28;20197;-64
2021/03/14 13:32:58;;;;;;;4.95;3.03;;;3.70;99.90;;;;;;4977239;28;20046;-65
2021/03/14 13:35:25;;;;;;;6.07;3.17;;;3.70;99.90;;;;;;4980995;28;20116;-66
2021/03/14 13:37:52;;;;;;;4.82;3.03;;;3.70;99.90;;;;;;4977928;28;20072;-67
2021/03/14 13:40:19;;;;;;;6.95;3.53;;;3.80;99.90;;;;;;4979411;28;20050;-65
2021/03/14 13:42:47;;;;;;;8.30;3.22;;;3.90;99.90;;;;;;4977427;28;20080;-65
2021/03/14 13:45:14;;;;;;;4.80;2.88;;;4.00;99.90;;;;;;4974934;28;20057;-65
2021/03/14 13:47:40;;;;;;;6.68;3.15;;;4.10;99.90;;;;;;4957994;28;20404;-66
2021/03/14 13:50:07;;;;;;;6.32;2.95;;;4.10;99.90;;;;;;4961301;28;20070;-64
2021/03/14 13:52:34;;;;;;;11.18;3.25;;;4.10;99.90;;;;;;4958655;28;20047;-66
2021/03/14 13:55:00;;;;;;;5.35;3.15;;;4.20;99.90;;;;;;4960924;28;20046;-65
2021/03/14 13:57:27;;;;;;;6.53;2.75;;;4.30;99.90;;;;;;4970499;28;20043;-65
2021/03/14 13:59:53;;;;;;;7.03;3.25;;;4.40;99.90;;;;;;4981409;28;20050;-65
2021/03/14 14:02:21;;;;;;;5.10;2.20;;;4.40;99.90;;;;;;4981876;28;20054;-65
2021/03/14 14:04:47;;;;;;;5.38;2.85;;;4.50;99.90;;;;;;4978708;28;20042;-66
2021/03/14 14:07:14;;;;;;;5.45;2.72;;;4.40;99.90;;;;;;4980229;28;20047;-66
2021/03/14 14:09:41;;;;;;;3.47;2.63;;;4.50;99.90;;;;;;4980390;28;20057;-65
2021/03/14 14:12:08;;;;;;;7.28;2.53;;;4.40;99.90;;;;;;4981411;28;20058;-66
2021/03/14 14:14:34;;;;;;;4.15;2.78;;;4.40;99.90;;;;;;4978105;28;20382;-66
2021/03/14 14:17:00;;;;;;;4.82;4.32;;;4.40;99.90;;;;;;4981917;28;20058;-66
2021/03/14 14:19:27;;;;;;;4.45;2.92;;;4.40;99.90;;;;;;4979780;28;20054;-65
2021/03/14 14:21:53;;;;;;;9.55;4.20;;;4.50;99.90;;;;;;4979470;28;20061;-67
2021/03/14 14:24:20;;;;;;;5.15;2.70;;;4.50;99.90;;;;;;4980355;28;20046;-66
2021/03/14 14:26:46;;;;;;;5.63;3.15;;;4.40;99.90;;;;;;4977206;28;20051;-66
2021/03/14 14:29:13;;;;;;;10.05;3.22;;;4.40;99.90;;;;;;4996873;28;20557;-66
2021/03/14 14:31:41;;;;;;;7.63;2.70;;;4.30;99.90;;;;;;4995945;28;20049;-66
2021/03/14 14:34:07;;;;;;;6.07;2.60;;;4.30;99.90;;;;;;4980045;28;20053;-67
2021/03/14 14:36:34;;;;;;;6.50;2.60;;;4.30;99.90;;;;;;4979563;28;20050;-66
2021/03/14 14:39:03;;;;;;;6.32;3.22;;;4.30;99.90;;;;;;4980126;28;20052;-65
2021/03/14 14:41:30;;;;;;;5.05;3.03;;;4.40;99.90;;;;;;4974716;28;20054;-67
2021/03/14 14:43:58;;;;;;;8.27;2.65;;;4.40;99.90;;;;;;4961997;28;20050;-65
2021/03/14 14:46:24;;;;;;;6.30;2.65;;;4.30;99.90;;;;;;4963606;28;20046;-65
2021/03/14 14:48:51;;;;;;;6.57;2.78;;;4.30;99.90;;;;;;4979006;28;20426;-66
2021/03/14 14:51:18;;;;;;;8.10;2.92;;;4.40;99.90;;;;;;4980185;28;20073;-68
2021/03/14 14:53:45;;;;;;;5.07;2.90;;;4.30;99.90;;;;;;4978828;28;20050;-65
2021/03/14 14:56:11;;;;;;;7.93;3.33;;;4.30;99.90;;;;;;4967294;28;20055;-65
2021/03/14 14:58:38;;;;;;;7.10;2.72;;;4.30;99.90;;;;;;4963191;28;20062;-65
2021/03/14 15:01:06;;;;;;;8.90;2.67;;;4.30;99.90;;;;;;4980258;28;20058;-66
2021/03/14 15:03:33;;;;;;;7.57;2.40;;;4.30;99.90;;;;;;4979749;28;20043;-66
2021/03/14 15:06:00;;;;;;;7.05;3.08;;;4.20;99.90;;;;;;4978747;28;20058;-65
2021/03/14 15:08:26;;;;;;;8.32;2.75;;;4.20;99.90;;;;;;4976467;28;20065;-66
2021/03/14 15:10:53;;;;;;;4.95;2.78;;;4.10;99.90;;;;;;4979271;28;20050;-65
2021/03/14 15:13:19;;;;;;;7.18;3.28;;;4.10;99.90;;;;;;4980028;28;20051;-64
2021/03/14 15:15:46;;;;;;;8.63;3.72;;;4.10;99.90;;;;;;4980428;28;20166;-65
2021/03/14 15:18:12;;;;;;;4.53;2.53;;;4.10;99.90;;;;;;4980224;28;20042;-65
2021/03/14 15:20:46;;;;;;;3.70;2.20;;;4.10;99.90;;;;;;4977714;28;20062;-66
2021/03/14 15:23:12;;;;;;;3.53;2.38;;;4.00;99.90;;;;;;4971677;28;20065;-64
2021/03/14 15:25:39;;;;;;;4.97;1.90;;;4.00;99.90;;;;;;4971488;28;20050;-66
2021/03/14 15:28:05;;;;;;;8.80;2.65;;;4.00;99.90;;;;;;4971683;28;20062;-66
2021/03/14 15:30:32;;;;;;;4.97;1.90;;;4.10;99.90;;;;;;4972247;28;20145;-66
2021/03/14 15:32:58;;;;;;;4.90;2.67;;;4.10;99.90;;;;;;4972979;28;20051;-65
2021/03/14 15:35:25;;;;;;;3.47;2.15;;;4.00;99.90;;;;;;4973052;28;20076;-65
2021/03/14 15:37:52;;;;;;;7.85;2.42;;;4.00;99.90;;;;;;4972698;28;20058;-66
2021/03/14 15:40:18;;;;;;;5.57;3.33;;;4.00;99.90;;;;;;4971557;28;20114;-67
2021/03/14 15:42:45;;;;;;;6.10;2.08;;;4.00;99.90;;;;;;4968937;28;20050;-71
2021/03/14 15:45:12;;;;;;;4.25;2.17;;;3.90;99.90;;;;;;4969085;28;20448;-67
2021/03/14 15:47:38;;;;;;;4.75;1.65;;;3.90;99.90;;;;;;4960971;28;20364;-67
2021/03/14 15:50:06;;;;;;;5.55;2.30;;;3.90;99.90;;;;;;4973079;28;20803;-66
2021/03/14 15:52:33;;;;;;;6.15;2.13;;;3.90;99.90;;;;;;4971381;28;20112;-67
2021/03/14 15:55:00;;;;;;;4.15;2.20;;;3.80;99.90;;;;;;4968430;28;20050;-67
2021/03/14 15:57:26;;;;;;;2.53;1.75;;;3.80;99.90;;;;;;4972042;28;20324;-65
2021/03/14 16:00:00;;;;;;;5.95;2.20;;;3.80;99.90;;;;;;4983444;28;20070;-65
2021/03/14 16:02:27;;;;;;;6.35;2.08;;;3.80;99.90;;;;;;4967821;28;20256;-67
2021/03/14 16:04:53;;;;;;;8.60;2.30;;;3.80;99.90;;;;;;4970700;28;20061;-65
2021/03/14 16:07:20;;;;;;;3.97;1.83;;;3.70;99.90;;;;;;4958330;28;20054;-67
2021/03/14 16:09:47;;;;;;;3.83;1.90;;;3.70;99.90;;;;;;4972463;28;20043;-66
2021/03/14 16:12:14;;;;;;;5.40;1.63;;;3.70;99.90;;;;;;4970858;28;20481;-69
2021/03/14 16:14:42;;;;;;;5.22;1.95;;;3.70;99.90;;;;;;4970031;28;20050;-68
2021/03/14 16:17:08;;;;;;;9.60;1.88;;;3.70;99.90;;;;;;4974317;28;20104;-70
2021/03/14 16:19:35;;;;;;;3.60;1.67;;;3.70;99.90;;;;;;4972971;28;20038;-69
2021/03/14 16:22:03;;;;;;;6.47;2.45;;;3.70;99.90;;;;;;4970502;28;20592;-67
2021/03/14 16:24:30;;;;;;;6.05;2.00;;;3.70;99.90;;;;;;4971938;28;20050;-66
2021/03/14 16:26:57;;;;;;;3.90;1.77;;;3.70;99.90;;;;;;4971629;28;20161;-72
2021/03/14 16:29:26;;;;;;;3.65;2.08;;;3.70;99.90;;;;;;4971822;28;20584;-72
2021/03/14 16:31:53;;;;;;;4.45;1.83;;;3.70;99.90;;;;;;4971654;28;20162;-69
2021/03/14 16:34:21;;;;;;;5.32;1.92;;;3.70;99.90;;;;;;4969209;28;20137;-69
2021/03/14 16:36:47;;;;;;;7.05;2.25;;;3.70;99.90;;;;;;4969612;28;20129;-70
2021/03/14 16:39:14;;;;;;;6.18;2.90;;;3.70;99.90;;;;;;4974158;28;20050;-67
2021/03/14 16:41:41;;;;;;;6.70;1.70;;;3.70;99.90;;;;;;4971529;28;20054;-69
2021/03/14 16:44:07;;;;;;;4.40;2.35;;;3.70;99.90;;;;;;4973114;28;20449;-72
2021/03/14 16:46:34;;;;;;;17.63;3.22;;;3.70;99.90;;;;;;4974291;28;20101;-70
2021/03/14 16:49:01;;;;;;;8.57;2.80;;;3.80;99.90;;;;;;4970502;28;20134;-68
2021/03/14 16:51:27;;;;;;;4.57;1.88;;;3.70;99.90;;;;;;4976734;28;20508;-68
2021/03/14 16:53:54;;;;;;;9.85;3.78;;;3.80;99.90;;;;;;4965890;28;20051;-68
2021/03/14 16:56:20;;;;;;;10.60;2.70;;;3.80;99.90;;;;;;4959800;28;20063;-67
2021/03/14 16:58:47;;;;;;;4.45;1.67;;;3.80;99.90;;;;;;4975475;28;20046;-70
2021/03/14 17:01:13;;;;;;;9.57;2.25;;;3.80;99.90;;;;;;4975535;28;20100;-71
2021/03/14 17:03:40;;;;;;;3.38;1.73;;;3.70;99.90;;;;;;4975755;28;20058;-69
2021/03/14 17:06:06;;;;;;;6.03;2.63;;;3.70;99.90;;;;;;4975827;28;20606;-70
2021/03/14 17:08:33;;;;;;;4.55;2.08;;;3.70;99.90;;;;;;4969852;28;20356;-71
2021/03/14 17:10:59;;;;;;;4.55;1.92;;;3.70;99.90;;;;;;4977430;28;20403;-68
2021/03/14 17:13:26;;;;;;;6.00;1.73;;;3.70;99.90;;;;;;4977324;28;20053;-69
2021/03/14 17:15:53;;;;;;;4.80;1.52;;;3.70;99.90;;;;;;4973178;28;20054;-67
2021/03/14 17:18:20;;;;;;;13.35;2.80;;;3.70;99.90;;;;;;4976644;28;20050;-67
2021/03/14 17:20:48;;;;;;;3.70;1.90;;;3.70;99.90;;;;;;4971556;28;20568;-68
2021/03/14 17:23:15;;;;;;;6.63;1.98;;;3.70;99.90;;;;;;4974105;28;20059;-67
2021/03/14 17:25:43;;;;;;;6.18;1.70;;;3.60;99.90;;;;;;4977833;28;20494;-69
2021/03/14 17:28:09;;;;;;;7.78;1.80;;;3.60;99.90;;;;;;4973568;28;20049;-69
2021/03/14 17:30:52;;;;;;;6.93;2.05;;;3.70;99.90;;;;;;4974007;28;20069;-66
2021/03/14 17:33:19;;;;;;;11.25;2.28;;;3.70;99.90;;;;;;4976782;28;20054;-67
2021/03/14 17:35:47;;;;;;;6.68;2.13;;;3.60;99.90;;;;;;4976066;28;20043;-65
2021/03/14 17:38:14;;;;;;;4.65;1.98;;;3.60;99.90;;;;;;4976226;28;20069;-66
2021/03/14 17:40:41;;;;;;;5.97;1.95;;;3.60;99.90;;;;;;4973460;28;20127;-72
2021/03/14 17:43:08;;;;;;;6.05;1.83;;;3.60;99.90;;;;;;4975333;28;20085;-65
2021/03/14 17:45:36;;;;;;;6.80;1.90;;;3.60;99.90;;;;;;4978061;28;20051;-66
2021/03/14 17:48:04;;;;;;;4.43;1.55;;;3.70;99.90;;;;;;4972568;28;20169;-66
2021/03/14 17:50:31;;;;;;;4.90;2.03;;;3.70;99.90;;;;;;4975042;28;20075;-68
2021/03/14 17:52:57;;;;;;;3.50;1.35;;;3.70;99.90;;;;;;4977038;28;20103;-66
2021/03/14 17:55:24;;;;;;;6.40;2.47;;;3.60;99.90;;;;;;4973093;28;20050;-69
2021/03/14 17:57:53;;;;;;;9.13;6.05;;;3.70;99.90;;;;;;4965250;28;20368;-65
2021/03/14 18:00:21;;;;;;;7.93;1.85;;;3.60;99.90;;;;;;4970523;28;20117;-68
2021/03/14 18:02:48;;;;;;;6.43;1.90;;;3.60;99.90;;;;;;4953394;28;20065;-70
2021/03/14 18:05:18;;;;;;;97.32;68.47;;;3.60;99.90;;;;;;4963362;28;20068;-65
2021/03/14 18:07:46;;;;;;;31.42;20.95;;;3.60;99.90;;;;;;4971182;28;20150;-65
2021/03/14 18:10:13;;;;;;;8.48;4.07;;;3.50;99.90;;;;;;4975239;28;20114;-67
2021/03/14 18:12:41;;;;;;;182.30;121.07;;;3.50;99.90;;;;;;4975287;28;20050;-68
2021/03/14 18:15:10;;;;;;;198.65;138.30;;;3.50;99.90;;;;;;4972461;28;20054;-70
2021/03/14 18:17:36;;;;;;;12.90;7.40;;;3.50;99.90;;;;;;4973110;28;20493;-69
2021/03/14 18:20:06;;;;;;;10.75;3.45;;;3.50;99.90;;;;;;4975144;28;20122;-67
2021/03/14 18:22:33;;;;;;;8.88;2.38;;;3.50;99.90;;;;;;4971354;28;20600;-70
2021/03/14 18:25:01;;;;;;;3.33;2.03;;;3.50;99.90;;;;;;4974419;28;20399;-69
2021/03/14 18:27:31;;;;;;;5.72;1.65;;;3.40;99.90;;;;;;4969600;28;20088;-69
2021/03/14 18:30:03;;;;;;;8.75;2.90;;;3.50;99.90;;;;;;4974491;28;20117;-69
2021/03/14 18:32:29;;;;;;;4.45;1.60;;;3.50;99.90;;;;;;4956694;28;20130;-67
2021/03/14 18:34:56;;;;;;;6.53;1.42;;;3.50;99.90;;;;;;4958206;28;20054;-71
2021/03/14 18:37:23;;;;;;;6.38;1.55;;;3.50;99.90;;;;;;4974398;28;20050;-74
2021/03/14 18:39:49;;;;;;;15.60;2.97;;;3.50;99.90;;;;;;4972516;28;20055;-71
2021/03/14 18:42:16;;;;;;;5.18;2.03;;;3.50;99.90;;;;;;4972489;28;20100;-69
2021/03/14 18:44:42;;;;;;;3.65;1.80;;;3.50;99.90;;;;;;4970020;28;20184;-64
2021/03/14 18:47:10;;;;;;;5.85;1.80;;;3.50;99.90;;;;;;4973347;28;20051;-70
2021/03/14 18:49:37;;;;;;;3.58;2.00;;;3.50;99.90;;;;;;4967942;28;20042;-70
2021/03/14 18:52:05;;;;;;;4.15;2.10;;;3.50;99.90;;;;;;4973522;28;20057;-68
2021/03/14 18:54:32;;;;;;;4.80;1.98;;;3.50;99.90;;;;;;4972160;28;20057;-73
2021/03/14 18:56:59;;;;;;;7.60;2.53;;;3.50;99.90;;;;;;4975289;28;20054;-67
2021/03/14 18:59:25;;;;;;;5.03;2.38;;;3.50;99.90;;;;;;4977609;28;20069;-69
2021/03/14 19:02:05;;;;;;;4.22;2.20;;;3.50;99.90;;;;;;4968381;28;20510;-67
2021/03/14 19:04:32;;;;;;;4.40;2.80;;;3.60;99.90;;;;;;4973392;28;20061;-65
2021/03/14 19:06:59;;;;;;;9.05;3.20;;;3.50;99.90;;;;;;4975855;28;20360;-65
2021/03/14 19:09:29;;;;;;;6.68;2.75;;;3.50;99.90;;;;;;4972309;28;20060;-70
2021/03/14 19:11:56;;;;;;;2.53;2.33;;;3.50;99.90;;;;;;4973185;28;20756;-67
2021/03/14 19:14:23;;;;;;;5.28;2.88;;;3.50;99.90;;;;;;4972939;28;20514;-68
2021/03/14 19:16:49;;;;;;;4.40;2.47;;;3.50;99.90;;;;;;4972051;28;20050;-68
2021/03/14 19:19:16;;;;;;;4.78;2.92;;;3.50;99.90;;;;;;4972235;28;20667;-73
2021/03/14 19:21:43;;;;;;;10.20;3.10;;;3.50;99.90;;;;;;4971858;28;20181;-68
2021/03/14 19:24:10;;;;;;;5.05;2.45;;;3.50;99.90;;;;;;4975089;28;20564;-68
2021/03/14 19:26:37;;;;;;;7.43;3.65;;;3.60;99.90;;;;;;4973994;28;20121;-65
2021/03/14 19:29:03;;;;;;;3.45;2.15;;;3.60;99.90;;;;;;4968467;28;20109;-67
2021/03/14 19:31:30;;;;;;;3.00;1.70;;;3.60;99.90;;;;;;4974633;28;20066;-70
2021/03/14 19:33:57;;;;;;;4.53;2.30;;;3.60;99.90;;;;;;4971966;28;20399;-68
2021/03/14 19:36:23;;;;;;;6.53;2.13;;;3.60;99.90;;;;;;4970052;28;20062;-67
2021/03/14 19:38:50;;;;;;;4.55;2.38;;;3.50;99.90;;;;;;4973322;28;20050;-73
2021/03/14 19:41:16;;;;;;;3.72;2.00;;;3.50;99.90;;;;;;4972719;28;20058;-66
2021/03/14 19:43:45;;;;;;;5.35;2.95;;;3.50;99.90;;;;;;4973490;28;20221;-66
2021/03/14 19:46:12;;;;;;;3.55;1.60;;;3.50;99.90;;;;;;4971205;28;20112;-67
2021/03/14 19:48:39;;;;;;;6.07;3.05;;;3.50;99.90;;;;;;4967858;28;20434;-65
2021/03/14 19:51:05;;;;;;;3.97;2.45;;;3.50;99.90;;;;;;4971633;28;20640;-69
2021/03/14 19:53:32;;;;;;;2.55;1.60;;;3.50;99.90;;;;;;4972026;28;20610;-68
2021/03/14 19:56:04;;;;;;;4.18;1.30;;;3.50;99.90;;;;;;4972351;28;20062;-72
2021/03/14 19:58:32;;;;;;;3.08;1.88;;;3.50;99.90;;;;;;4970488;28;20128;-69
2021/03/14 20:00:59;;;;;;;2.30;1.30;;;3.50;99.90;;;;;;4973738;28;20061;-66
2021/03/14 20:03:26;;;;;;;7.38;1.90;;;3.40;99.90;;;;;;4970407;28;21667;-68
2021/03/14 20:05:53;;;;;;;5.32;1.83;;;3.40;99.90;;;;;;4974110;28;20169;-72
2021/03/14 20:08:19;;;;;;;4.82;1.83;;;3.50;99.90;;;;;;4970928;28;20097;-68
2021/03/14 20:10:46;;;;;;;4.18;1.40;;;3.40;99.90;;;;;;4969946;28;20133;-74
2021/03/14 20:13:12;;;;;;;2.00;1.75;;;3.40;99.90;;;;;;4971437;28;20046;-68
2021/03/14 20:15:40;;;;;;;5.63;2.10;;;3.40;99.90;;;;;;4970073;28;20046;-67
2021/03/14 20:18:07;;;;;;;8.10;2.20;;;3.40;99.90;;;;;;4971983;28;20057;-69
2021/03/14 20:20:33;;;;;;;5.05;1.88;;;3.40;99.90;;;;;;4971750;28;20054;-69
2021/03/14 20:23:00;;;;;;;4.03;1.92;;;3.40;99.90;;;;;;4971229;28;21098;-67
2021/03/14 20:25:32;;;;;;;3.13;1.80;;;3.30;99.90;;;;;;4966060;28;20511;-68
2021/03/14 20:27:58;;;;;;;6.35;2.42;;;3.40;99.90;;;;;;4963738;28;20112;-67
2021/03/14 20:30:25;;;;;;;3.13;1.92;;;3.30;99.90;;;;;;4955918;28;20121;-68
2021/03/14 20:33:12;;;;;;;4.55;2.42;;;3.30;99.90;;;;;;4977314;28;20053;-68
2021/03/14 20:35:39;;;;;;;4.55;2.35;;;3.30;99.90;;;;;;4977160;28;20062;-67
2021/03/14 20:38:06;;;;;;;6.10;1.92;;;3.30;99.90;;;;;;4979141;28;20052;-71
2021/03/14 20:40:32;;;;;;;4.75;1.95;;;3.20;99.90;;;;;;4977308;28;20767;-68
2021/03/14 20:42:59;;;;;;;2.75;2.35;;;3.20;99.90;;;;;;4973467;28;20694;-71
2021/03/14 20:45:25;;;;;;;5.60;1.85;;;3.20;99.90;;;;;;4978981;28;20058;-69
2021/03/14 20:47:52;;;;;;;3.47;1.80;;;3.30;99.90;;;;;;4973626;28;20124;-71
2021/03/14 20:50:19;;;;;;;2.17;1.98;;;3.30;99.90;;;;;;4988446;28;20059;-68
2021/03/14 20:52:46;;;;;;;3.05;1.48;;;3.30;99.90;;;;;;4974946;28;20232;-69
2021/03/14 20:55:12;;;;;;;1.63;1.30;;;3.30;99.90;;;;;;4970231;28;20063;-67
2021/03/14 20:57:41;;;;;;;4.25;2.05;;;3.40;99.90;;;;;;4979014;28;20125;-67
2021/03/14 21:00:09;;;;;;;3.80;1.90;;;3.40;99.90;;;;;;4978475;28;20050;-69
2021/03/14 21:02:35;;;;;;;2.72;1.92;;;3.40;99.90;;;;;;4969885;28;20065;-74
2021/03/14 21:05:22;;;;;;;5.57;2.17;;;3.40;99.90;;;;;;4974421;28;20196;-67
2021/03/14 21:07:49;;;;;;;1.48;1.35;;;3.40;99.90;;;;;;4974399;28;20108;-68
2021/03/14 21:10:16;;;;;;;2.47;1.27;;;3.40;99.90;;;;;;4972708;28;20077;-67
2021/03/14 21:12:42;;;;;;;4.65;1.63;;;3.50;99.90;;;;;;4972897;28;20454;-70
2021/03/14 21:15:09;;;;;;;3.28;1.60;;;3.50;99.90;;;;;;4973527;28;20110;-70
2021/03/14 21:17:36;;;;;;;6.82;1.70;;;3.50;99.90;;;;;;4973698;28;20058;-71
2021/03/14 21:20:05;;;;;;;2.65;1.40;;;3.50;99.90;;;;;;4977166;28;20042;-69
2021/03/14 21:22:33;;;;;;;5.43;1.80;;;3.50;99.90;;;;;;4975206;28;20322;-72
2021/03/14 21:25:05;;;;;;;3.65;1.25;;;3.50;99.90;;;;;;4975025;28;20128;-68
2021/03/14 21:27:31;;;;;;;4.22;1.50;;;3.40;99.90;;;;;;4974174;28;20055;-70
2021/03/14 21:29:58;;;;;;;6.10;2.00;;;3.40;99.90;;;;;;4964813;28;20042;-66
2021/03/14 21:32:25;;;;;;;1.60;1.50;;;3.40;99.90;;;;;;4973043;28;20054;-69
2021/03/14 21:34:52;;;;;;;4.15;2.67;;;3.40;99.90;;;;;;4970055;28;20054;-69
2021/03/14 21:37:18;;;;;;;5.82;2.20;;;3.50;99.90;;;;;;4972567;28;20895;-66
2021/03/14 21:39:45;;;;;;;3.97;2.10;;;3.40;99.90;;;;;;4975179;28;20494;-68
2021/03/14 21:42:11;;;;;;;2.35;1.85;;;3.50;99.90;;;;;;4974240;28;20054;-69
2021/03/14 21:44:38;;;;;;;3.28;1.90;;;3.40;99.90;;;;;;4983421;28;20561;-66
2021/03/14 21:47:20;;;;;;;4.45;3.50;;;3.40;99.90;;;;;;4949440;28;20141;-71
2021/03/14 21:49:47;;;;;;;3.13;2.05;;;3.40;99.90;;;;;;4964258;28;20039;-68
2021/03/14 21:52:13;;;;;;;1.77;1.60;;;3.40;99.90;;;;;;4974434;28;20065;-68
2021/03/14 21:54:41;;;;;;;1.88;1.10;;;3.40;99.90;;;;;;4971278;28;20074;-69
2021/03/14 21:57:07;;;;;;;1.92;1.80;;;3.40;99.90;;;;;;4968776;28;20054;-68
2021/03/14 21:59:33;;;;;;;3.90;1.90;;;3.40;99.90;;;;;;4973484;28;20069;-69
2021/03/14 22:02:13;;;;;;;3.20;1.75;;;3.40;99.90;;;;;;4969948;28;20419;-72
2021/03/14 22:04:40;;;;;;;7.30;1.70;;;3.40;99.90;;;;;;4971025;28;20165;-66
2021/03/14 22:07:06;;;;;;;3.33;1.58;;;3.40;99.90;;;;;;4972661;28;20144;-69
2021/03/14 22:09:33;;;;;;;1.65;1.55;;;3.40;99.90;;;;;;4970485;28;20118;-67
2021/03/14 22:12:00;;;;;;;2.63;1.55;;;3.40;99.90;;;;;;4975672;28;20050;-68
2021/03/14 22:14:26;;;;;;;3.15;1.83;;;3.40;99.90;;;;;;4977005;28;20050;-66
2021/03/14 22:16:53;;;;;;;3.33;2.15;;;3.30;99.90;;;;;;4970159;28;20118;-72
2021/03/14 22:19:19;;;;;;;3.38;1.42;;;3.40;99.90;;;;;;4972745;28;20046;-68
2021/03/14 22:21:46;;;;;;;2.75;1.88;;;3.30;99.90;;;;;;4972525;28;20054;-67
2021/03/14 22:24:13;;;;;;;4.60;1.92;;;3.30;99.90;;;;;;4971334;28;20502;-70
2021/03/14 22:26:39;;;;;;;2.08;1.88;;;3.30;99.90;;;;;;4975183;28;20157;-70
2021/03/14 22:29:05;;;;;;;3.42;2.30;;;3.30;99.90;;;;;;4966882;28;20875;-66
2021/03/14 22:31:32;;;;;;;3.25;1.70;;;3.20;99.90;;;;;;4975380;28;20139;-71
2021/03/14 22:33:59;;;;;;;4.28;1.77;;;3.20;99.90;;;;;;4974996;28;20064;-66
2021/03/14 22:36:25;;;;;;;2.63;1.63;;;3.20;99.90;;;;;;4969232;28;21734;-66
2021/03/14 22:38:52;;;;;;;2.60;1.30;;;3.20;99.90;;;;;;4974388;28;20062;-68
2021/03/14 22:41:18;;;;;;;5.03;2.03;;;3.20;99.90;;;;;;4970371;28;20089;-66
2021/03/14 22:43:45;;;;;;;3.78;1.70;;;3.20;99.90;;;;;;4971851;28;20096;-69
2021/03/14 22:46:12;;;;;;;3.13;2.00;;;3.20;99.90;;;;;;4976997;28;20430;-69
2021/03/14 22:48:39;;;;;;;4.30;1.55;;;3.20;99.90;;;;;;4972599;28;20062;-67
2021/03/14 22:51:06;;;;;;;3.60;1.30;;;3.10;99.90;;;;;;4968383;28;21722;-66
2021/03/14 22:53:32;;;;;;;2.72;1.48;;;3.10;99.90;;;;;;4972514;28;20109;-69
2021/03/14 22:55:59;;;;;;;2.55;1.38;;;3.10;99.90;;;;;;4966831;28;20049;-68
2021/03/14 22:58:26;;;;;;;2.60;1.50;;;3.10;99.90;;;;;;4974790;28;20797;-68
2021/03/14 23:00:52;;;;;;;2.55;1.52;;;3.10;99.90;;;;;;4975308;28;20134;-67
2021/03/14 23:03:23;;;;;;;3.08;1.70;;;3.10;99.90;;;;;;4966141;28;20050;-72
2021/03/14 23:05:50;;;;;;;;;;;3.10;99.90;;;;;;4975320;28;20172;-68
2021/03/14 23:08:26;;;;;;;3.85;1.77;;;3.10;99.90;;;;;;4976106;28;20353;-66
2021/03/14 23:10:58;;;;;;;2.35;1.80;;;3.10;99.90;;;;;;4973489;28;20098;-67
2021/03/14 23:13:24;;;;;;;2.85;1.85;;;3.10;99.90;;;;;;4971811;28;20054;-69
2021/03/14 23:15:51;;;;;;;6.05;2.03;;;3.10;99.90;;;;;;4972368;28;20047;-71
2021/03/14 23:18:20;;;;;;;6.72;1.40;;;3.10;99.90;;;;;;4971720;28;20661;-66
2021/03/14 23:20:47;;;;;;;1.90;1.30;;;3.10;99.90;;;;;;4976407;28;20617;-69
2021/03/14 23:23:17;;;;;;;3.90;1.38;;;3.10;99.90;;;;;;4970758;28;20196;-69
2021/03/14 23:25:46;;;;;;;7.90;1.80;;;3.10;99.90;;;;;;4988232;28;20046;-66
2021/03/14 23:28:17;;;;;;;2.53;1.52;;;3.10;99.90;;;;;;4976884;28;20046;-71
2021/03/14 23:30:47;;;;;;;3.67;1.92;;;3.10;99.90;;;;;;4970904;28;20046;-68
2021/03/14 23:33:16;;;;;;;1.77;1.05;;;3.10;99.90;;;;;;4973852;28;20050;-68
2021/03/14 23:35:44;;;;;;;4.03;1.27;;;3.10;99.90;;;;;;4974743;28;20053;-70
2021/03/14 23:38:13;;;;;;;6.78;1.58;;;3.10;99.90;;;;;;4971614;28;20137;-69
2021/03/14 23:40:40;;;;;;;2.10;1.15;;;3.10;99.90;;;;;;4976288;28;20647;-68
2021/03/14 23:43:07;;;;;;;3.65;1.88;;;3.10;99.90;;;;;;4968519;28;20447;-68
2021/03/14 23:45:35;;;;;;;4.38;1.48;;;3.00;99.90;;;;;;4974400;28;20034;-69
2021/03/14 23:48:02;;;;;;;4.00;2.22;;;3.00;99.90;;;;;;4975211;28;20101;-66
2021/03/14 23:50:32;;;;;;;2.10;1.77;;;3.00;99.90;;;;;;4973879;28;20434;-70
2021/03/14 23:52:58;;;;;;;8.68;1.88;;;3.00;99.90;;;;;;4973141;28;20109;-68
2021/03/14 23:55:25;;;;;;;3.00;1.73;;;3.00;99.90;;;;;;4972039;28;20058;-67
2021/03/14 23:57:52;;;;;;;1.88;1.15;;;3.00;99.90;;;;;;4972026;28;20065;-67
